sensor_id;sensor_type;location;lat;lon;timestamp;temperature;humidity
69009;SHT31;56065;52.472;13.380;2022-11-20T00:01:07;2.13;84.05
69009;SHT31;56065;52.472;13.380;2022-11-20T00:03:32;2.27;83.97
69009;SHT31;56065;52.472;13.380;2022-11-20T00:06:05;2.33;83.41
69009;SHT31;56065;52.472;13.380;2022-11-20T00:08:31;2.09;83.31
69009;SHT31;56065;52.472;13.380;2022-11-20T00:10:57;1.99;83.95
69009;SHT31;56065;52.472;13.380;2022-11-20T00:13:22;2.17;83.83
69009;SHT31;56065;52.472;13.380;2022-11-20T00:15:48;2.17;83.72
69009;SHT31;56065;52.472;13.380;2022-11-20T00:18:13;2.27;83.45
69009;SHT31;56065;52.472;13.380;2022-11-20T00:20:39;2.13;83.22
69009;SHT31;56065;52.472;13.380;2022-11-20T00:23:04;2.30;83.19
69009;SHT31;56065;52.472;13.380;2022-11-20T00:25:30;2.23;83.29
69009;SHT31;56065;52.472;13.380;2022-11-20T00:27:56;2.26;83.15
69009;SHT31;56065;52.472;13.380;2022-11-20T00:30:21;2.29;83.21
69009;SHT31;56065;52.472;13.380;2022-11-20T00:32:47;2.27;83.20
69009;SHT31;56065;52.472;13.380;2022-11-20T00:35:12;1.83;83.50
69009;SHT31;56065;52.472;13.380;2022-11-20T00:37:37;2.05;83.79
69009;SHT31;56065;52.472;13.380;2022-11-20T00:40:03;2.15;83.41
69009;SHT31;56065;52.472;13.380;2022-11-20T00:42:28;2.16;83.35
69009;SHT31;56065;52.472;13.380;2022-11-20T00:44:54;2.26;83.00
69009;SHT31;56065;52.472;13.380;2022-11-20T00:47:19;2.20;82.93
69009;SHT31;56065;52.472;13.380;2022-11-20T00:49:45;2.17;83.14
69009;SHT31;56065;52.472;13.380;2022-11-20T00:52:11;2.30;82.88
69009;SHT31;56065;52.472;13.380;2022-11-20T00:54:36;2.20;83.16
69009;SHT31;56065;52.472;13.380;2022-11-20T00:57:01;2.27;82.78
69009;SHT31;56065;52.472;13.380;2022-11-20T00:59:27;2.37;82.69
69009;SHT31;56065;52.472;13.380;2022-11-20T01:01:53;2.47;82.62
69009;SHT31;56065;52.472;13.380;2022-11-20T01:04:18;2.50;82.09
69009;SHT31;56065;52.472;13.380;2022-11-20T01:06:43;2.48;82.25
69009;SHT31;56065;52.472;13.380;2022-11-20T01:09:13;2.44;82.35
69009;SHT31;56065;52.472;13.380;2022-11-20T01:11:43;2.46;82.48
69009;SHT31;56065;52.472;13.380;2022-11-20T01:14:15;2.34;82.55
69009;SHT31;56065;52.472;13.380;2022-11-20T01:16:46;2.29;82.80
69009;SHT31;56065;52.472;13.380;2022-11-20T01:19:17;2.34;82.91
69009;SHT31;56065;52.472;13.380;2022-11-20T01:21:44;2.41;82.64
69009;SHT31;56065;52.472;13.380;2022-11-20T01:24:12;2.43;82.36
69009;SHT31;56065;52.472;13.380;2022-11-20T01:26:39;2.44;82.07
69009;SHT31;56065;52.472;13.380;2022-11-20T01:29:06;2.46;82.52
69009;SHT31;56065;52.472;13.380;2022-11-20T01:31:34;2.57;82.40
69009;SHT31;56065;52.472;13.380;2022-11-20T01:34:05;2.57;82.09
69009;SHT31;56065;52.472;13.380;2022-11-20T01:36:32;2.38;81.86
69009;SHT31;56065;52.472;13.380;2022-11-20T01:39:00;2.46;81.96
69009;SHT31;56065;52.472;13.380;2022-11-20T01:41:27;2.46;81.93
69009;SHT31;56065;52.472;13.380;2022-11-20T01:44:13;2.34;82.30
69009;SHT31;56065;52.472;13.380;2022-11-20T01:46:45;2.40;82.13
69009;SHT31;56065;52.472;13.380;2022-11-20T01:51:53;2.26;81.90
69009;SHT31;56065;52.472;13.380;2022-11-20T01:54:37;2.20;82.53
69009;SHT31;56065;52.472;13.380;2022-11-20T01:57:06;2.09;82.57
69009;SHT31;56065;52.472;13.380;2022-11-20T01:59:33;2.23;82.63
69009;SHT31;56065;52.472;13.380;2022-11-20T02:01:59;2.19;82.22
69009;SHT31;56065;52.472;13.380;2022-11-20T02:04:24;2.16;82.01
69009;SHT31;56065;52.472;13.380;2022-11-20T02:07:00;1.69;82.63
69009;SHT31;56065;52.472;13.380;2022-11-20T02:09:26;1.79;82.76
69009;SHT31;56065;52.472;13.380;2022-11-20T02:11:52;1.85;82.46
69009;SHT31;56065;52.472;13.380;2022-11-20T02:14:18;1.85;82.39
69009;SHT31;56065;52.472;13.380;2022-11-20T02:16:46;1.78;82.68
69009;SHT31;56065;52.472;13.380;2022-11-20T02:19:19;1.76;82.82
69009;SHT31;56065;52.472;13.380;2022-11-20T02:22:24;1.45;83.50
69009;SHT31;56065;52.472;13.380;2022-11-20T02:24:52;1.78;82.84
69009;SHT31;56065;52.472;13.380;2022-11-20T02:27:17;1.86;82.39
69009;SHT31;56065;52.472;13.380;2022-11-20T02:29:54;1.95;82.12
69009;SHT31;56065;52.472;13.380;2022-11-20T02:32:24;1.91;82.24
69009;SHT31;56065;52.472;13.380;2022-11-20T02:34:50;1.91;82.02
69009;SHT31;56065;52.472;13.380;2022-11-20T02:37:16;1.78;82.09
69009;SHT31;56065;52.472;13.380;2022-11-20T02:39:44;1.85;82.05
69009;SHT31;56065;52.472;13.380;2022-11-20T02:42:11;1.89;82.17
69009;SHT31;56065;52.472;13.380;2022-11-20T02:44:36;1.92;81.76
69009;SHT31;56065;52.472;13.380;2022-11-20T02:47:01;1.87;81.90
69009;SHT31;56065;52.472;13.380;2022-11-20T02:49:27;1.93;81.34
69009;SHT31;56065;52.472;13.380;2022-11-20T02:51:52;1.83;81.75
69009;SHT31;56065;52.472;13.380;2022-11-20T02:54:18;1.50;82.08
69009;SHT31;56065;52.472;13.380;2022-11-20T02:56:43;1.45;82.43
69009;SHT31;56065;52.472;13.380;2022-11-20T02:59:09;1.66;82.31
69009;SHT31;56065;52.472;13.380;2022-11-20T03:01:35;1.59;82.46
69009;SHT31;56065;52.472;13.380;2022-11-20T03:04:01;1.62;82.35
69009;SHT31;56065;52.472;13.380;2022-11-20T03:06:27;1.66;82.36
69009;SHT31;56065;52.472;13.380;2022-11-20T03:08:52;1.76;82.04
69009;SHT31;56065;52.472;13.380;2022-11-20T03:11:18;1.78;81.91
69009;SHT31;56065;52.472;13.380;2022-11-20T03:13:43;1.85;81.95
69009;SHT31;56065;52.472;13.380;2022-11-20T03:16:16;1.93;81.97
69009;SHT31;56065;52.472;13.380;2022-11-20T03:18:42;1.96;81.69
69009;SHT31;56065;52.472;13.380;2022-11-20T03:21:08;1.92;81.50
69009;SHT31;56065;52.472;13.380;2022-11-20T03:23:34;2.01;81.64
69009;SHT31;56065;52.472;13.380;2022-11-20T03:26:20;1.69;81.10
69009;SHT31;56065;52.472;13.380;2022-11-20T03:28:51;1.71;81.78
69009;SHT31;56065;52.472;13.380;2022-11-20T03:31:18;1.59;82.14
69009;SHT31;56065;52.472;13.380;2022-11-20T03:33:44;1.64;81.96
69009;SHT31;56065;52.472;13.380;2022-11-20T03:36:11;1.54;81.88
69009;SHT31;56065;52.472;13.380;2022-11-20T03:38:38;1.61;82.11
69009;SHT31;56065;52.472;13.380;2022-11-20T03:41:12;1.64;82.00
69009;SHT31;56065;52.472;13.380;2022-11-20T03:43:38;1.76;82.16
69009;SHT31;56065;52.472;13.380;2022-11-20T03:46:05;1.85;81.66
69009;SHT31;56065;52.472;13.380;2022-11-20T03:48:30;1.89;81.65
69009;SHT31;56065;52.472;13.380;2022-11-20T03:51:24;1.89;81.83
69009;SHT31;56065;52.472;13.380;2022-11-20T03:53:52;1.96;81.68
69009;SHT31;56065;52.472;13.380;2022-11-20T03:56:19;1.98;81.45
69009;SHT31;56065;52.472;13.380;2022-11-20T03:58:45;1.99;81.40
69009;SHT31;56065;52.472;13.380;2022-11-20T04:03:43;2.15;81.43
69009;SHT31;56065;52.472;13.380;2022-11-20T04:06:20;2.15;81.12
69009;SHT31;56065;52.472;13.380;2022-11-20T04:08:46;2.16;80.72
69009;SHT31;56065;52.472;13.380;2022-11-20T04:11:23;2.09;80.79
69009;SHT31;56065;52.472;13.380;2022-11-20T04:13:50;2.15;81.15
69009;SHT31;56065;52.472;13.380;2022-11-20T04:16:17;2.12;81.03
69009;SHT31;56065;52.472;13.380;2022-11-20T04:18:42;2.05;80.65
69009;SHT31;56065;52.472;13.380;2022-11-20T04:21:09;1.99;80.78
69009;SHT31;56065;52.472;13.380;2022-11-20T04:23:34;2.07;80.76
69009;SHT31;56065;52.472;13.380;2022-11-20T04:26:10;2.02;80.53
69009;SHT31;56065;52.472;13.380;2022-11-20T04:28:36;2.09;80.63
69009;SHT31;56065;52.472;13.380;2022-11-20T04:31:06;1.96;80.64
69009;SHT31;56065;52.472;13.380;2022-11-20T04:33:31;1.92;80.82
69009;SHT31;56065;52.472;13.380;2022-11-20T04:36:01;1.95;80.70
69009;SHT31;56065;52.472;13.380;2022-11-20T04:38:27;2.03;80.64
69009;SHT31;56065;52.472;13.380;2022-11-20T04:40:56;2.06;80.68
69009;SHT31;56065;52.472;13.380;2022-11-20T04:43:22;1.99;80.66
69009;SHT31;56065;52.472;13.380;2022-11-20T04:45:51;1.89;80.84
69009;SHT31;56065;52.472;13.380;2022-11-20T04:48:17;1.98;80.92
69009;SHT31;56065;52.472;13.380;2022-11-20T04:50:42;1.96;80.83
69009;SHT31;56065;52.472;13.380;2022-11-20T04:53:07;1.96;81.01
69009;SHT31;56065;52.472;13.380;2022-11-20T04:55:33;1.89;81.12
69009;SHT31;56065;52.472;13.380;2022-11-20T04:57:58;1.96;81.01
69009;SHT31;56065;52.472;13.380;2022-11-20T05:00:24;1.96;81.35
69009;SHT31;56065;52.472;13.380;2022-11-20T05:02:49;1.93;81.04
69009;SHT31;56065;52.472;13.380;2022-11-20T05:05:14;1.92;80.91
69009;SHT31;56065;52.472;13.380;2022-11-20T05:07:40;1.91;80.96
69009;SHT31;56065;52.472;13.380;2022-11-20T05:10:05;1.78;80.98
69009;SHT31;56065;52.472;13.380;2022-11-20T05:12:31;1.64;81.42
69009;SHT31;56065;52.472;13.380;2022-11-20T05:14:56;1.71;81.45
69009;SHT31;56065;52.472;13.380;2022-11-20T05:17:22;1.79;81.30
69009;SHT31;56065;52.472;13.380;2022-11-20T05:19:54;1.66;81.87
69009;SHT31;56065;52.472;13.380;2022-11-20T05:22:19;1.72;81.79
69009;SHT31;56065;52.472;13.380;2022-11-20T05:24:44;1.85;81.38
69009;SHT31;56065;52.472;13.380;2022-11-20T05:27:12;1.68;81.44
69009;SHT31;56065;52.472;13.380;2022-11-20T05:29:38;1.81;81.67
69009;SHT31;56065;52.472;13.380;2022-11-20T05:32:03;1.76;81.92
69009;SHT31;56065;52.472;13.380;2022-11-20T05:34:31;1.89;81.76
69009;SHT31;56065;52.472;13.380;2022-11-20T05:36:56;1.85;81.73
69009;SHT31;56065;52.472;13.380;2022-11-20T05:39:21;1.75;81.72
69009;SHT31;56065;52.472;13.380;2022-11-20T05:41:47;1.87;81.58
69009;SHT31;56065;52.472;13.380;2022-11-20T05:44:35;1.96;81.50
69009;SHT31;56065;52.472;13.380;2022-11-20T05:47:00;1.99;81.63
69009;SHT31;56065;52.472;13.380;2022-11-20T05:49:26;1.89;81.37
69009;SHT31;56065;52.472;13.380;2022-11-20T05:51:51;1.96;81.24
69009;SHT31;56065;52.472;13.380;2022-11-20T05:54:19;1.83;81.80
69009;SHT31;56065;52.472;13.380;2022-11-20T05:56:44;1.72;81.91
69009;SHT31;56065;52.472;13.380;2022-11-20T05:59:10;1.85;81.68
69009;SHT31;56065;52.472;13.380;2022-11-20T06:01:38;1.89;81.73
69009;SHT31;56065;52.472;13.380;2022-11-20T06:04:03;1.83;81.82
69009;SHT31;56065;52.472;13.380;2022-11-20T06:06:29;1.98;81.76
69009;SHT31;56065;52.472;13.380;2022-11-20T06:08:55;2.02;81.53
69009;SHT31;56065;52.472;13.380;2022-11-20T06:11:20;1.87;81.47
69009;SHT31;56065;52.472;13.380;2022-11-20T06:13:46;1.89;81.55
69009;SHT31;56065;52.472;13.380;2022-11-20T06:16:14;1.89;81.53
69009;SHT31;56065;52.472;13.380;2022-11-20T06:18:40;2.01;81.31
69009;SHT31;56065;52.472;13.380;2022-11-20T06:21:19;2.01;81.31
69009;SHT31;56065;52.472;13.380;2022-11-20T06:23:45;2.05;81.13
69009;SHT31;56065;52.472;13.380;2022-11-20T06:26:14;1.89;81.17
69009;SHT31;56065;52.472;13.380;2022-11-20T06:28:39;1.93;81.42
69009;SHT31;56065;52.472;13.380;2022-11-20T06:31:06;1.76;81.34
69009;SHT31;56065;52.472;13.380;2022-11-20T06:33:32;1.91;81.52
69009;SHT31;56065;52.472;13.380;2022-11-20T06:36:01;1.62;81.67
69009;SHT31;56065;52.472;13.380;2022-11-20T06:38:27;1.61;81.89
69009;SHT31;56065;52.472;13.380;2022-11-20T06:40:53;1.56;82.26
69009;SHT31;56065;52.472;13.380;2022-11-20T06:43:18;1.54;82.08
69009;SHT31;56065;52.472;13.380;2022-11-20T06:45:44;1.40;82.28
69009;SHT31;56065;52.472;13.380;2022-11-20T06:48:09;1.62;82.20
69009;SHT31;56065;52.472;13.380;2022-11-20T06:50:36;1.55;81.96
69009;SHT31;56065;52.472;13.380;2022-11-20T06:53:03;1.76;81.55
69009;SHT31;56065;52.472;13.380;2022-11-20T06:55:29;1.55;81.68
69009;SHT31;56065;52.472;13.380;2022-11-20T06:57:54;1.40;82.10
69009;SHT31;56065;52.472;13.380;2022-11-20T07:00:20;1.48;82.08
69009;SHT31;56065;52.472;13.380;2022-11-20T07:02:45;1.45;82.35
69009;SHT31;56065;52.472;13.380;2022-11-20T07:05:10;1.54;81.95
69009;SHT31;56065;52.472;13.380;2022-11-20T07:07:36;1.64;81.88
69009;SHT31;56065;52.472;13.380;2022-11-20T07:10:01;1.45;81.88
69009;SHT31;56065;52.472;13.380;2022-11-20T07:12:26;1.55;81.85
69009;SHT31;56065;52.472;13.380;2022-11-20T07:14:52;1.52;81.67
69009;SHT31;56065;52.472;13.380;2022-11-20T07:17:17;1.45;81.92
69009;SHT31;56065;52.472;13.380;2022-11-20T07:19:43;1.44;82.09
69009;SHT31;56065;52.472;13.380;2022-11-20T07:22:08;1.22;82.13
69009;SHT31;56065;52.472;13.380;2022-11-20T07:24:34;1.30;81.93
69009;SHT31;56065;52.472;13.380;2022-11-20T07:27:00;1.45;81.74
69009;SHT31;56065;52.472;13.380;2022-11-20T07:29:25;1.50;81.78
69009;SHT31;56065;52.472;13.380;2022-11-20T07:31:51;1.55;81.50
69009;SHT31;56065;52.472;13.380;2022-11-20T07:34:16;1.44;81.37
69009;SHT31;56065;52.472;13.380;2022-11-20T07:36:41;1.30;81.42
69009;SHT31;56065;52.472;13.380;2022-11-20T07:39:07;1.47;81.46
69009;SHT31;56065;52.472;13.380;2022-11-20T07:41:32;1.59;81.13
69009;SHT31;56065;52.472;13.380;2022-11-20T07:43:58;1.47;80.92
69009;SHT31;56065;52.472;13.380;2022-11-20T07:46:23;1.52;80.85
69009;SHT31;56065;52.472;13.380;2022-11-20T07:48:48;1.66;81.03
69009;SHT31;56065;52.472;13.380;2022-11-20T07:51:14;1.64;80.75
69009;SHT31;56065;52.472;13.380;2022-11-20T07:53:39;1.62;80.90
69009;SHT31;56065;52.472;13.380;2022-11-20T07:56:05;1.79;80.59
69009;SHT31;56065;52.472;13.380;2022-11-20T07:58:31;1.87;80.19
69009;SHT31;56065;52.472;13.380;2022-11-20T08:01:02;1.68;80.82
69009;SHT31;56065;52.472;13.380;2022-11-20T08:03:27;1.78;80.79
69009;SHT31;56065;52.472;13.380;2022-11-20T08:05:52;1.86;80.73
69009;SHT31;56065;52.472;13.380;2022-11-20T08:08:18;1.71;80.69
69009;SHT31;56065;52.472;13.380;2022-11-20T08:10:43;1.71;80.56
69009;SHT31;56065;52.472;13.380;2022-11-20T08:13:08;1.92;80.29
69009;SHT31;56065;52.472;13.380;2022-11-20T08:15:53;1.96;80.23
69009;SHT31;56065;52.472;13.380;2022-11-20T08:18:18;1.76;80.27
69009;SHT31;56065;52.472;13.380;2022-11-20T08:20:43;1.99;80.43
69009;SHT31;56065;52.472;13.380;2022-11-20T08:23:09;2.22;80.27
69009;SHT31;56065;52.472;13.380;2022-11-20T08:25:36;2.32;79.94
69009;SHT31;56065;52.472;13.380;2022-11-20T08:28:05;2.32;79.92
69009;SHT31;56065;52.472;13.380;2022-11-20T08:30:31;2.43;79.76
69009;SHT31;56065;52.472;13.380;2022-11-20T08:33:05;2.26;79.62
69009;SHT31;56065;52.472;13.380;2022-11-20T08:35:36;2.32;79.70
69009;SHT31;56065;52.472;13.380;2022-11-20T08:38:02;2.48;79.97
69009;SHT31;56065;52.472;13.380;2022-11-20T08:40:28;2.48;79.55
69009;SHT31;56065;52.472;13.380;2022-11-20T08:42:53;2.54;79.42
69009;SHT31;56065;52.472;13.380;2022-11-20T08:45:19;2.36;79.48
69009;SHT31;56065;52.472;13.380;2022-11-20T08:47:45;2.33;79.68
69009;SHT31;56065;52.472;13.380;2022-11-20T08:50:13;2.07;79.65
69009;SHT31;56065;52.472;13.380;2022-11-20T08:52:38;1.89;80.57
69009;SHT31;56065;52.472;13.380;2022-11-20T08:55:05;1.78;80.54
69009;SHT31;56065;52.472;13.380;2022-11-20T08:57:35;1.79;81.05
69009;SHT31;56065;52.472;13.380;2022-11-20T09:00:01;1.83;80.99
69009;SHT31;56065;52.472;13.380;2022-11-20T09:02:27;1.81;81.03
69009;SHT31;56065;52.472;13.380;2022-11-20T09:04:52;1.75;80.80
69009;SHT31;56065;52.472;13.380;2022-11-20T09:07:18;1.92;80.96
69009;SHT31;56065;52.472;13.380;2022-11-20T09:09:44;1.81;81.30
69009;SHT31;56065;52.472;13.380;2022-11-20T09:12:09;1.99;80.52
69009;SHT31;56065;52.472;13.380;2022-11-20T09:14:34;2.10;80.42
69009;SHT31;56065;52.472;13.380;2022-11-20T09:17:00;2.17;80.51
69009;SHT31;56065;52.472;13.380;2022-11-20T09:19:25;2.47;79.72
69009;SHT31;56065;52.472;13.380;2022-11-20T09:21:51;2.41;79.66
69009;SHT31;56065;52.472;13.380;2022-11-20T09:24:17;2.41;79.31
69009;SHT31;56065;52.472;13.380;2022-11-20T09:26:42;2.37;79.29
69009;SHT31;56065;52.472;13.380;2022-11-20T09:29:07;2.24;79.00
69009;SHT31;56065;52.472;13.380;2022-11-20T09:31:33;1.93;79.70
69009;SHT31;56065;52.472;13.380;2022-11-20T09:33:58;2.03;80.03
69009;SHT31;56065;52.472;13.380;2022-11-20T09:36:23;1.98;79.93
69009;SHT31;56065;52.472;13.380;2022-11-20T09:38:49;1.93;80.33
69009;SHT31;56065;52.472;13.380;2022-11-20T09:44:53;2.02;79.82
69009;SHT31;56065;52.472;13.380;2022-11-20T09:50:26;2.07;79.83
69009;SHT31;56065;52.472;13.380;2022-11-20T09:53:13;2.23;78.82
69009;SHT31;56065;52.472;13.380;2022-11-20T09:55:40;2.33;78.98
69009;SHT31;56065;52.472;13.380;2022-11-20T09:58:06;2.34;79.21
69009;SHT31;56065;52.472;13.380;2022-11-20T10:00:35;2.57;78.63
69009;SHT31;56065;52.472;13.380;2022-11-20T10:03:01;2.62;77.98
69009;SHT31;56065;52.472;13.380;2022-11-20T10:05:31;2.71;78.11
69009;SHT31;56065;52.472;13.380;2022-11-20T10:08:36;2.75;77.74
69009;SHT31;56065;52.472;13.380;2022-11-20T10:17:16;2.05;79.06
69009;SHT31;56065;52.472;13.380;2022-11-20T10:23:28;1.72;80.12
69009;SHT31;56065;52.472;13.380;2022-11-20T10:25:38;1.99;79.32
69009;SHT31;56065;52.472;13.380;2022-11-20T10:28:19;2.12;79.27
69009;SHT31;56065;52.472;13.380;2022-11-20T10:31:07;2.07;79.24
69009;SHT31;56065;52.472;13.380;2022-11-20T10:33:38;1.98;79.60
69009;SHT31;56065;52.472;13.380;2022-11-20T10:36:17;2.32;79.43
69009;SHT31;56065;52.472;13.380;2022-11-20T10:38:48;2.32;78.90
69009;SHT31;56065;52.472;13.380;2022-11-20T10:41:21;2.43;79.17
69009;SHT31;56065;52.472;13.380;2022-11-20T10:44:03;2.61;79.10
69009;SHT31;56065;52.472;13.380;2022-11-20T10:46:36;2.58;78.73
69009;SHT31;56065;52.472;13.380;2022-11-20T10:49:04;2.73;78.19
69009;SHT31;56065;52.472;13.380;2022-11-20T10:51:53;2.99;77.85
69009;SHT31;56065;52.472;13.380;2022-11-20T10:54:54;3.05;77.54
69009;SHT31;56065;52.472;13.380;2022-11-20T10:57:42;3.35;77.21
69009;SHT31;56065;52.472;13.380;2022-11-20T11:00:12;3.42;76.62
69009;SHT31;56065;52.472;13.380;2022-11-20T11:02:46;3.08;76.75
69009;SHT31;56065;52.472;13.380;2022-11-20T11:05:39;3.59;76.07
69009;SHT31;56065;52.472;13.380;2022-11-20T11:08:13;3.35;76.42
69009;SHT31;56065;52.472;13.380;2022-11-20T11:13:24;3.74;76.06
69009;SHT31;56065;52.472;13.380;2022-11-20T11:15:50;3.66;75.63
69009;SHT31;56065;52.472;13.380;2022-11-20T11:18:33;4.01;75.06
69009;SHT31;56065;52.472;13.380;2022-11-20T11:21:00;4.18;73.91
69009;SHT31;56065;52.472;13.380;2022-11-20T11:23:41;4.08;73.30
69009;SHT31;56065;52.472;13.380;2022-11-20T11:26:27;4.83;72.19
69009;SHT31;56065;52.472;13.380;2022-11-20T11:28:57;5.44;71.00
69009;SHT31;56065;52.472;13.380;2022-11-20T11:31:28;5.07;70.75
69009;SHT31;56065;52.472;13.380;2022-11-20T11:34:11;5.20;71.29
69009;SHT31;56065;52.472;13.380;2022-11-20T11:36:36;4.98;71.99
69009;SHT31;56065;52.472;13.380;2022-11-20T11:39:03;4.96;71.61
69009;SHT31;56065;52.472;13.380;2022-11-20T11:41:32;5.04;71.36
69009;SHT31;56065;52.472;13.380;2022-11-20T11:44:19;5.04;71.88
69009;SHT31;56065;52.472;13.380;2022-11-20T11:49:48;3.93;73.97
69009;SHT31;56065;52.472;13.380;2022-11-20T11:52:18;3.78;74.75
69009;SHT31;56065;52.472;13.380;2022-11-20T11:55:01;3.81;75.04
69009;SHT31;56065;52.472;13.380;2022-11-20T12:00:17;3.93;75.34
69009;SHT31;56065;52.472;13.380;2022-11-20T12:05:38;4.07;74.81
69009;SHT31;56065;52.472;13.380;2022-11-20T12:10:59;4.32;74.76
69009;SHT31;56065;52.472;13.380;2022-11-20T12:15:51;4.49;73.69
69009;SHT31;56065;52.472;13.380;2022-11-20T12:18:21;4.77;73.21
69009;SHT31;56065;52.472;13.380;2022-11-20T12:26:01;4.45;73.36
69009;SHT31;56065;52.472;13.380;2022-11-20T12:34:40;4.76;73.29
69009;SHT31;56065;52.472;13.380;2022-11-20T12:37:16;4.72;73.23
69009;SHT31;56065;52.472;13.380;2022-11-20T12:39:43;4.58;73.22
69009;SHT31;56065;52.472;13.380;2022-11-20T12:42:49;4.21;73.41
69009;SHT31;56065;52.472;13.380;2022-11-20T12:48:35;4.04;75.81
69009;SHT31;56065;52.472;13.380;2022-11-20T12:54:02;4.08;75.32
69009;SHT31;56065;52.472;13.380;2022-11-20T12:56:46;3.83;75.67
69009;SHT31;56065;52.472;13.380;2022-11-20T13:07:27;3.64;76.50
69009;SHT31;56065;52.472;13.380;2022-11-20T13:09:53;3.70;76.20
69009;SHT31;56065;52.472;13.380;2022-11-20T13:12:26;3.39;77.08
69009;SHT31;56065;52.472;13.380;2022-11-20T13:17:53;3.44;77.35
69009;SHT31;56065;52.472;13.380;2022-11-20T13:20:19;3.36;77.83
69009;SHT31;56065;52.472;13.380;2022-11-20T13:22:50;3.49;77.31
69009;SHT31;56065;52.472;13.380;2022-11-20T13:25:28;3.44;77.59
69009;SHT31;56065;52.472;13.380;2022-11-20T13:27:56;3.56;77.48
69009;SHT31;56065;52.472;13.380;2022-11-20T13:30:23;3.56;77.56
69009;SHT31;56065;52.472;13.380;2022-11-20T13:32:54;3.42;77.87
69009;SHT31;56065;52.472;13.380;2022-11-20T13:35:40;3.49;78.04
69009;SHT31;56065;52.472;13.380;2022-11-20T13:38:12;3.44;77.64
69009;SHT31;56065;52.472;13.380;2022-11-20T13:43:22;3.67;77.11
69009;SHT31;56065;52.472;13.380;2022-11-20T13:45:59;3.76;77.42
69009;SHT31;56065;52.472;13.380;2022-11-20T13:48:33;3.55;77.76
69009;SHT31;56065;52.472;13.380;2022-11-20T13:51:07;3.37;78.13
69009;SHT31;56065;52.472;13.380;2022-11-20T13:56:37;3.46;78.66
69009;SHT31;56065;52.472;13.380;2022-11-20T14:02:10;3.29;79.24
69009;SHT31;56065;52.472;13.380;2022-11-20T14:04:42;3.13;79.35
69009;SHT31;56065;52.472;13.380;2022-11-20T14:07:08;3.19;79.61
69009;SHT31;56065;52.472;13.380;2022-11-20T14:09:34;3.49;79.21
69009;SHT31;56065;52.472;13.380;2022-11-20T14:12:01;3.44;79.37
69009;SHT31;56065;52.472;13.380;2022-11-20T14:14:28;3.57;80.08
69009;SHT31;56065;52.472;13.380;2022-11-20T14:17:08;3.29;79.27
69009;SHT31;56065;52.472;13.380;2022-11-20T14:19:34;3.22;79.90
69009;SHT31;56065;52.472;13.380;2022-11-20T14:22:22;3.32;79.73
69009;SHT31;56065;52.472;13.380;2022-11-20T14:24:59;3.47;79.73
69009;SHT31;56065;52.472;13.380;2022-11-20T14:27:25;3.44;79.50
69009;SHT31;56065;52.472;13.380;2022-11-20T14:29:50;3.64;79.73
69009;SHT31;56065;52.472;13.380;2022-11-20T14:32:21;3.73;79.52
69009;SHT31;56065;52.472;13.380;2022-11-20T14:34:48;3.66;79.17
69009;SHT31;56065;52.472;13.380;2022-11-20T14:37:21;3.83;78.85
69009;SHT31;56065;52.472;13.380;2022-11-20T14:39:51;3.83;78.69
69009;SHT31;56065;52.472;13.380;2022-11-20T14:42:25;3.87;79.19
69009;SHT31;56065;52.472;13.380;2022-11-20T14:44:52;3.97;78.30
69009;SHT31;56065;52.472;13.380;2022-11-20T14:47:29;3.66;77.58
69009;SHT31;56065;52.472;13.380;2022-11-20T14:49:55;3.73;77.78
69009;SHT31;56065;52.472;13.380;2022-11-20T14:52:26;3.71;77.76
69009;SHT31;56065;52.472;13.380;2022-11-20T14:54:53;3.71;78.00
69009;SHT31;56065;52.472;13.380;2022-11-20T14:57:24;3.57;77.31
69009;SHT31;56065;52.472;13.380;2022-11-20T14:59:50;3.40;78.15
69009;SHT31;56065;52.472;13.380;2022-11-20T15:02:16;3.59;77.93
69009;SHT31;56065;52.472;13.380;2022-11-20T15:04:50;3.63;77.66
69009;SHT31;56065;52.472;13.380;2022-11-20T15:07:36;3.55;76.90
69009;SHT31;56065;52.472;13.380;2022-11-20T15:10:08;3.59;77.46
69009;SHT31;56065;52.472;13.380;2022-11-20T15:12:36;3.16;77.33
69009;SHT31;56065;52.472;13.380;2022-11-20T15:15:02;3.26;77.39
69009;SHT31;56065;52.472;13.380;2022-11-20T15:17:30;3.20;77.33
69009;SHT31;56065;52.472;13.380;2022-11-20T15:19:55;3.09;78.08
69009;SHT31;56065;52.472;13.380;2022-11-20T15:22:21;2.98;78.31
69009;SHT31;56065;52.472;13.380;2022-11-20T15:24:46;2.95;78.50
69009;SHT31;56065;52.472;13.380;2022-11-20T15:27:12;2.95;78.52
69009;SHT31;56065;52.472;13.380;2022-11-20T15:29:37;3.08;78.49
69009;SHT31;56065;52.472;13.380;2022-11-20T15:32:03;3.04;78.33
69009;SHT31;56065;52.472;13.380;2022-11-20T15:34:28;2.83;78.79
69009;SHT31;56065;52.472;13.380;2022-11-20T15:36:53;2.80;79.35
69009;SHT31;56065;52.472;13.380;2022-11-20T15:39:19;2.88;78.90
69009;SHT31;56065;52.472;13.380;2022-11-20T15:41:45;2.94;79.05
69009;SHT31;56065;52.472;13.380;2022-11-20T15:44:10;2.88;79.11
69009;SHT31;56065;52.472;13.380;2022-11-20T15:46:37;2.92;79.08
69009;SHT31;56065;52.472;13.380;2022-11-20T15:49:05;2.95;79.02
69009;SHT31;56065;52.472;13.380;2022-11-20T15:51:34;2.89;79.05
69009;SHT31;56065;52.472;13.380;2022-11-20T15:53:59;2.94;78.86
69009;SHT31;56065;52.472;13.380;2022-11-20T15:56:25;3.01;78.97
69009;SHT31;56065;52.472;13.380;2022-11-20T15:58:51;2.85;79.10
69009;SHT31;56065;52.472;13.380;2022-11-20T16:01:19;3.09;78.73
69009;SHT31;56065;52.472;13.380;2022-11-20T16:03:45;2.85;79.00
69009;SHT31;56065;52.472;13.380;2022-11-20T16:06:10;2.85;79.34
69009;SHT31;56065;52.472;13.380;2022-11-20T16:08:36;2.81;78.92
69009;SHT31;56065;52.472;13.380;2022-11-20T16:11:01;2.83;78.52
69009;SHT31;56065;52.472;13.380;2022-11-20T16:13:27;2.70;78.53
69009;SHT31;56065;52.472;13.380;2022-11-20T16:16:32;2.48;78.90
69009;SHT31;56065;52.472;13.380;2022-11-20T16:18:58;2.13;79.54
69009;SHT31;56065;52.472;13.380;2022-11-20T16:21:25;2.09;79.31
69009;SHT31;56065;52.472;13.380;2022-11-20T16:24:00;2.19;79.33
69009;SHT31;56065;52.472;13.380;2022-11-20T16:26:27;2.13;79.48
69009;SHT31;56065;52.472;13.380;2022-11-20T16:28:53;1.95;80.15
69009;SHT31;56065;52.472;13.380;2022-11-20T16:31:19;1.83;80.52
69009;SHT31;56065;52.472;13.380;2022-11-20T16:33:55;1.95;80.29
69009;SHT31;56065;52.472;13.380;2022-11-20T16:36:23;1.93;80.36
69009;SHT31;56065;52.472;13.380;2022-11-20T16:38:56;1.82;80.39
69009;SHT31;56065;52.472;13.380;2022-11-20T16:41:22;1.83;80.57
69009;SHT31;56065;52.472;13.380;2022-11-20T16:43:50;1.81;80.62
69009;SHT31;56065;52.472;13.380;2022-11-20T16:46:18;1.76;80.46
69009;SHT31;56065;52.472;13.380;2022-11-20T16:48:44;1.78;80.64
69009;SHT31;56065;52.472;13.380;2022-11-20T16:51:10;1.74;80.74
69009;SHT31;56065;52.472;13.380;2022-11-20T16:53:36;1.71;81.03
69009;SHT31;56065;52.472;13.380;2022-11-20T16:56:18;1.65;81.18